Terminal Aerodrome Forecast
Issued by NWS

Home | Current Version | Previous Version | Text Only | Print | Product List | Glossary On
Versions: 1 2 3 4 5 6 7 8 9 10 11 12 13 14 15
000
FTUS45 KVEF 261100
TAFVGT
TAF
KVGT 261120Z 2612/2712 33005KT P6SM BKN250
     FM261700 15005KT P6SM FEW150 OVC200
     FM270000 VRB05KT P6SM BKN080 OVC150
     FM270600 20005KT 5SM -RA BKN050 OVC080
     FM270900 20005KT 5SM -RA SCT020 BKN030=

USA.gov is the U.S. government's official web portal to all federal, state and local government web resources and services.